Time;durP1;ratioP1;P1;durP2;ratioP2;P2;SDS_P1;SDS_P2;PMS_P1;PMS_P2;Temp;Humidity;BMP_temperature;BMP_pressure;BME280_temperature;BME280_humidity;BME280_pressure;Samples;Min_cycle;Max_cycle;Signal;HPM_P1;HPM_P2
2022/07/22 00:00:34;;;;;;;5.93;2.05;;;;;;;16.75;60.05;101664.72;7399083;19;21850;-51
2022/07/22 00:03:02;;;;;;;2.67;0.88;;;;;;;16.74;59.68;101654.69;7397534;19;20010;-53
2022/07/22 00:05:29;;;;;;;4.80;2.65;;;;;;;16.73;60.08;101663.47;7399875;19;20468;-52
2022/07/22 00:07:57;;;;;;;8.65;1.63;;;;;;;16.73;60.12;101657.88;7401741;19;20476;-52
2022/07/22 00:18:00;;;;;;;2.92;1.30;;;;;;;16.72;60.26;101650.66;7400233;19;20017;-53
2022/07/22 00:20:28;;;;;;;5.37;1.03;;;;;;;16.73;60.09;101638.31;7399030;19;20044;-53
2022/07/22 00:22:56;;;;;;;5.10;1.08;;;;;;;16.77;60.42;101650.38;7400091;19;20891;-54
2022/07/22 00:25:23;;;;;;;2.60;0.80;;;;;;;16.76;60.42;101640.38;7398818;19;20011;-51
2022/07/22 00:34:43;;;;;;;3.05;0.65;;;;;;;16.78;59.90;101649.19;7402572;19;20120;-52
2022/07/22 00:37:22;;;;;;;3.40;1.27;;;;;;;16.77;60.49;101658.75;7398311;19;20035;-48
2022/07/22 00:43:59;;;;;;;3.78;1.17;;;;;;;16.79;60.22;101650.78;7395254;19;20070;-51
2022/07/22 00:46:27;;;;;;;5.63;1.92;;;;;;;16.85;60.32;101638.97;7398680;19;20040;-53
2022/07/22 00:52:21;;;;;;;3.60;1.27;;;;;;;16.90;59.89;101652.66;7395747;19;20015;-53
2022/07/22 01:02:15;;;;;;;5.22;1.33;;;;;;;16.80;60.50;101642.06;7398347;19;20010;-54
2022/07/22 01:04:43;;;;;;;3.10;1.20;;;;;;;16.86;60.14;101645.38;7395708;19;20011;-50
2022/07/22 01:11:08;;;;;;;4.60;1.10;;;;;;;16.77;60.48;101625.19;7400593;19;20015;-53
2022/07/22 01:13:48;;;;;;;3.65;1.25;;;;;;;16.75;60.32;101621.97;7395357;19;20010;-51
2022/07/22 01:16:38;;;;;;;6.18;0.93;;;;;;;16.69;60.71;101617.81;7397821;19;20015;-50
2022/07/22 01:19:06;;;;;;;4.50;1.08;;;;;;;16.70;60.77;101617.47;7399406;19;20007;-49
2022/07/22 01:22:20;;;;;;;8.80;1.90;;;;;;;16.63;61.17;101608.09;7397903;19;20070;-51
2022/07/22 01:25:32;;;;;;;1.98;0.60;;;;;;;16.60;61.24;101614.44;7399507;19;20011;-52
2022/07/22 01:28:10;;;;;;;5.15;0.60;;;;;;;16.68;60.92;101624.59;7396456;19;20044;-47
2022/07/22 01:30:37;;;;;;;1.45;1.10;;;;;;;16.70;60.66;101619.44;7388304;19;20021;-51
2022/07/22 01:36:46;;;;;;;2.38;0.73;;;;;;;16.71;60.90;101616.28;7396275;19;20010;-56
2022/07/22 01:39:14;;;;;;;7.68;1.73;;;;;;;16.69;60.76;101606.63;7397785;19;20066;-54
2022/07/22 01:41:42;;;;;;;2.90;0.80;;;;;;;16.61;60.85;101602.88;7397832;19;20021;-52
2022/07/22 01:47:30;;;;;;;3.85;0.98;;;;;;;16.52;61.33;101599.44;7394477;19;20018;-56
2022/07/22 02:04:44;;;;;;;2.38;0.90;;;;;;;16.32;61.83;101593.00;7399329;19;20014;-54
2022/07/22 02:11:03;;;;;;;5.78;1.25;;;;;;;16.30;62.11;101592.56;7399352;19;20002;-54
2022/07/22 02:13:52;;;;;;;5.85;0.82;;;;;;;16.30;62.48;101595.34;7398207;19;20362;-54
2022/07/22 02:16:41;;;;;;;3.65;0.90;;;;;;;16.32;62.14;101603.34;7390449;19;20010;-50
2022/07/22 02:19:31;;;;;;;3.45;0.82;;;;;;;16.31;62.56;101598.94;7399087;19;20346;-54
2022/07/22 02:22:35;;;;;;;6.18;1.02;;;;;;;16.25;62.75;101576.06;7395345;19;20003;-55
2022/07/22 02:25:30;;;;;;;4.45;1.58;;;;;;;16.24;62.93;101582.81;7398362;19;20007;-53
2022/07/22 02:27:58;;;;;;;2.97;0.80;;;;;;;16.24;62.83;101579.22;7396346;19;20473;-55
2022/07/22 02:30:26;;;;;;;3.28;1.27;;;;;;;16.29;62.71;101576.94;7390103;19;20045;-52
2022/07/22 02:32:53;;;;;;;2.55;0.80;;;;;;;16.31;62.70;101576.56;7394462;19;20021;-53
2022/07/22 02:35:21;;;;;;;5.28;0.80;;;;;;;16.26;62.87;101572.09;7397111;19;20030;-55
2022/07/22 02:38:45;;;;;;;7.65;0.80;;;;;;;16.20;63.22;101569.94;7393525;19;20021;-54
2022/07/22 02:41:12;;;;;;;2.13;0.40;;;;;;;16.22;62.94;101574.00;7395581;19;20048;-56
2022/07/22 02:54:54;;;;;;;3.92;0.75;;;;;;;16.08;63.31;101559.69;7393316;19;20015;-51
2022/07/22 02:57:21;;;;;;;2.85;0.80;;;;;;;16.11;63.40;101561.75;7394069;19;20383;-53
2022/07/22 03:11:37;;;;;;;4.40;0.93;;;;;;;16.14;62.91;101563.00;7394587;19;20014;-51
2022/07/22 03:14:26;;;;;;;1.15;0.90;;;;;;;16.21;63.13;101563.16;7393937;19;20017;-54
2022/07/22 03:21:12;;;;;;;4.53;1.02;;;;;;;16.19;63.28;101543.19;7396247;19;20006;-56
2022/07/22 03:23:39;;;;;;;1.98;0.73;;;;;;;16.23;63.01;101541.28;7395149;19;20043;-56
2022/07/22 03:26:07;;;;;;;2.88;0.70;;;;;;;16.25;62.92;101547.31;7392170;19;20011;-55
2022/07/22 03:28:35;;;;;;;2.15;0.75;;;;;;;16.27;63.27;101542.97;7397291;19;20030;-55
2022/07/22 03:31:04;;;;;;;4.47;1.02;;;;;;;16.22;63.42;101536.88;7400607;19;20435;-54
2022/07/22 03:33:31;;;;;;;7.53;1.65;;;;;;;16.19;63.73;101535.59;7396443;19;20044;-54
2022/07/22 03:35:59;;;;;;;2.20;0.50;;;;;;;16.19;63.44;101532.81;7402295;19;20010;-55
2022/07/22 03:38:27;;;;;;;2.28;0.60;;;;;;;16.19;63.72;101520.81;7397831;19;20025;-53
2022/07/22 03:40:56;;;;;;;3.00;0.75;;;;;;;16.16;63.95;101527.13;7401781;19;20006;-55
2022/07/22 03:47:09;;;;;;;4.47;0.75;;;;;;;16.20;63.32;101522.47;7391663;19;20528;-51
2022/07/22 03:49:58;;;;;;;1.77;0.70;;;;;;;16.20;63.43;101514.84;7402594;19;20014;-53
2022/07/22 03:56:13;;;;;;;7.07;1.23;;;;;;;16.13;63.44;101516.69;7401120;19;20010;-52
2022/07/22 03:58:41;;;;;;;5.65;0.80;;;;;;;16.08;63.67;101528.97;7399420;19;20040;-53
2022/07/22 04:01:09;;;;;;;4.13;0.82;;;;;;;16.04;64.10;101519.69;7398479;19;20077;-55
2022/07/22 04:03:37;;;;;;;7.55;1.42;;;;;;;16.02;64.31;101522.03;7399044;19;20029;-56
2022/07/22 04:06:31;;;;;;;2.95;1.00;;;;;;;16.00;64.03;101516.00;7400812;19;20007;-52
2022/07/22 04:09:15;;;;;;;3.78;1.80;;;;;;;16.01;64.39;101508.44;7401296;19;20030;-51
2022/07/22 04:11:43;;;;;;;2.70;0.77;;;;;;;16.01;64.38;101503.66;7399700;19;20043;-53
2022/07/22 04:14:12;;;;;;;3.10;0.75;;;;;;;16.03;63.99;101512.47;7400771;19;20029;-51
2022/07/22 04:16:39;;;;;;;3.22;1.05;;;;;;;16.05;64.41;101498.13;7400022;19;20010;-53
2022/07/22 04:19:10;;;;;;;3.42;0.82;;;;;;;16.04;64.24;101490.94;7401089;19;20078;-55
2022/07/22 04:21:47;;;;;;;2.33;0.77;;;;;;;16.01;64.17;101498.06;7396980;19;20025;-54
2022/07/22 04:24:15;;;;;;;2.65;0.70;;;;;;;15.98;64.58;101490.41;7399248;19;20015;-47
2022/07/22 04:26:43;;;;;;;4.75;1.08;;;;;;;15.98;64.71;101490.41;7399650;19;20048;-49
2022/07/22 04:29:10;;;;;;;3.67;1.13;;;;;;;15.98;64.63;101492.41;7398094;19;20014;-50
2022/07/22 04:31:39;;;;;;;3.30;1.02;;;;;;;15.96;64.48;101495.56;7400261;19;20352;-51
2022/07/22 04:34:15;;;;;;;2.72;0.90;;;;;;;15.93;64.81;101490.72;7400411;19;20338;-47
2022/07/22 04:36:43;;;;;;;3.83;1.08;;;;;;;15.91;64.88;101490.25;7399786;19;20016;-54
2022/07/22 04:39:10;;;;;;;2.05;0.70;;;;;;;15.93;64.96;101495.47;7400027;19;20022;-51
2022/07/22 04:41:44;;;;;;;4.05;1.63;;;;;;;15.97;64.91;101493.56;7398552;19;20538;-53
2022/07/22 04:44:15;;;;;;;6.07;1.83;;;;;;;15.98;64.74;101498.81;7400359;19;20342;-53
2022/07/22 04:46:42;;;;;;;1.45;0.85;;;;;;;15.96;65.06;101489.97;7397259;19;20010;-50
2022/07/22 04:49:10;;;;;;;1.50;0.82;;;;;;;15.99;65.12;101500.41;7398332;19;20015;-51
2022/07/22 04:51:38;;;;;;;2.72;0.90;;;;;;;16.01;64.79;101495.28;7397908;19;20017;-49
2022/07/22 04:54:09;;;;;;;6.90;1.40;;;;;;;16.05;64.51;101496.16;7396589;19;20018;-50
2022/07/22 04:56:40;;;;;;;4.93;0.90;;;;;;;16.10;64.46;101481.09;7395721;19;20037;-53
2022/07/22 04:59:08;;;;;;;9.13;2.38;;;;;;;16.08;64.35;101481.47;7399641;19;20560;-52
2022/07/22 05:01:36;;;;;;;2.65;1.20;;;;;;;16.00;64.71;101482.47;7398602;19;20021;-52
2022/07/22 05:04:06;;;;;;;7.45;1.00;;;;;;;16.03;64.62;101478.97;7397857;19;20097;-52
2022/07/22 05:06:33;;;;;;;1.65;0.90;;;;;;;16.02;64.80;101482.91;7398666;19;20018;-52
2022/07/22 05:09:03;;;;;;;5.78;0.95;;;;;;;16.00;64.93;101478.88;7398003;19;20022;-52
2022/07/22 05:11:31;;;;;;;6.72;1.10;;;;;;;15.96;64.80;101478.81;7396108;19;20038;-52
2022/07/22 05:13:59;;;;;;;4.13;1.33;;;;;;;15.96;65.25;101489.97;7392727;19;20500;-50
2022/07/22 05:16:26;;;;;;;4.88;1.30;;;;;;;16.00;64.82;101479.69;7396269;19;20018;-53
2022/07/22 05:18:54;;;;;;;4.25;1.10;;;;;;;15.99;64.81;101475.25;7398529;19;20014;-53
2022/07/22 05:28:38;;;;;;;2.80;1.20;;;;;;;15.95;65.06;101466.00;7395057;19;20006;-50
2022/07/22 05:31:07;;;;;;;4.60;1.20;;;;;;;15.94;65.05;101467.16;7393487;19;20006;-49
2022/07/22 05:33:36;;;;;;;1.73;1.15;;;;;;;15.96;64.65;101466.81;7395111;19;20036;-54
2022/07/22 05:36:27;;;;;;;3.22;1.00;;;;;;;15.93;64.72;101479.53;7398394;19;20014;-52
2022/07/22 05:38:56;;;;;;;2.78;1.90;;;;;;;15.94;64.83;101475.53;7395223;19;20037;-49
2022/07/22 05:41:24;;;;;;;4.22;1.65;;;;;;;15.97;64.54;101474.81;7396002;19;20025;-49
2022/07/22 05:43:52;;;;;;;6.18;2.00;;;;;;;16.00;64.78;101479.69;7395028;19;20476;-47
2022/07/22 05:46:19;;;;;;;3.55;1.50;;;;;;;16.07;64.50;101479.84;7394712;19;20014;-51
2022/07/22 05:48:48;;;;;;;4.47;1.58;;;;;;;16.05;64.73;101468.22;7394430;19;20490;-52
2022/07/22 05:54:59;;;;;;;6.90;2.08;;;;;;;16.07;64.74;101479.06;7399481;19;20014;-53
2022/07/22 06:01:54;;;;;;;6.93;1.77;;;;;;;16.19;64.68;101464.94;7396579;19;20009;-54
2022/07/22 06:05:02;;;;;;;5.03;1.30;;;;;;;16.23;64.67;101460.25;7399133;19;20062;-51
2022/07/22 06:07:50;;;;;;;7.55;1.70;;;;;;;16.22;65.20;101461.44;7394632;19;20007;-50
2022/07/22 06:10:59;;;;;;;8.57;2.15;;;;;;;16.26;65.13;101456.72;7398293;19;20014;-52
2022/07/22 06:13:49;;;;;;;5.32;2.15;;;;;;;16.31;64.93;101451.63;7393627;19;20360;-50
2022/07/22 06:16:38;;;;;;;7.25;2.75;;;;;;;16.35;65.14;101449.75;7397823;19;20007;-54
2022/07/22 06:27:08;;;;;;;4.68;1.60;;;;;;;16.41;64.41;101451.06;7397819;19;20018;-53
2022/07/22 06:29:56;;;;;;;5.75;2.25;;;;;;;16.41;64.58;101451.06;7398952;19;20018;-52
2022/07/22 06:32:44;;;;;;;7.00;1.80;;;;;;;16.45;64.22;101446.34;7394268;19;20014;-49
2022/07/22 06:35:40;;;;;;;6.95;1.92;;;;;;;16.48;64.24;101450.41;7397500;19;20007;-53
2022/07/22 06:46:11;;;;;;;3.85;1.92;;;;;;;16.69;64.08;101464.03;7392618;19;20341;-52
2022/07/22 06:49:08;;;;;;;5.18;1.45;;;;;;;16.74;63.63;101461.75;7392262;19;20010;-53
2022/07/22 06:55:34;;;;;;;6.32;1.70;;;;;;;16.74;63.82;101449.75;7399522;19;20340;-52
2022/07/22 06:58:07;;;;;;;4.30;1.30;;;;;;;16.76;63.45;101450.22;7395202;19;20025;-53
2022/07/22 07:00:40;;;;;;;6.00;2.05;;;;;;;16.79;63.51;101443.84;7393952;19;20453;-53
2022/07/22 07:07:34;;;;;;;6.63;1.48;;;;;;;16.94;63.66;101456.94;7398504;19;20472;-50
2022/07/22 07:10:04;;;;;;;7.55;1.58;;;;;;;17.00;63.33;101455.44;7399611;19;20022;-53
2022/07/22 07:12:43;;;;;;;5.60;1.42;;;;;;;17.03;63.28;101461.09;7398572;19;20021;-52
2022/07/22 07:19:21;;;;;;;4.38;1.77;;;;;;;17.13;62.87;101462.47;7406531;19;20010;-50
2022/07/22 07:22:09;;;;;;;4.13;1.75;;;;;;;17.17;63.06;101454.16;7403865;19;20452;-51
2022/07/22 07:24:57;;;;;;;4.38;1.63;;;;;;;17.20;62.89;101454.22;7404926;19;20017;-52
2022/07/22 07:27:45;;;;;;;6.43;1.50;;;;;;;17.26;62.78;101458.31;7403837;19;20011;-51
2022/07/22 07:30:35;;;;;;;4.05;1.27;;;;;;;17.28;62.34;101453.16;7401855;19;20034;-50
2022/07/22 07:33:23;;;;;;;8.13;1.50;;;;;;;17.29;62.57;101459.59;7400611;19;20006;-54
2022/07/22 07:36:12;;;;;;;5.45;1.63;;;;;;;17.28;62.39;101453.16;7402398;19;20021;-50
2022/07/22 08:22:37;;;;;;;5.93;1.35;;;;;;;18.62;60.37;101449.59;7381576;19;20026;-49
2022/07/22 08:28:56;;;;;;;7.53;1.58;;;;;;;19.37;59.37;101442.75;7399665;19;20007;-47
2022/07/22 08:31:26;;;;;;;5.40;1.30;;;;;;;19.84;58.88;101444.72;7397551;19;20002;-49
2022/07/22 08:33:55;;;;;;;11.00;2.30;;;;;;;20.60;58.55;101439.94;7398156;19;20010;-46
2022/07/22 09:47:49;;;;;;;3.53;1.30;;;;;;;25.85;38.85;101404.22;7412838;19;20018;-48
2022/07/22 09:54:13;;;;;;;2.30;0.65;;;;;;;25.78;38.43;101410.03;7413019;19;20014;-51
2022/07/22 09:56:41;;;;;;;2.67;0.70;;;;;;;25.72;37.85;101396.78;7417934;19;20467;-48
2022/07/22 10:02:59;;;;;;;3.70;0.90;;;;;;;25.09;37.92;101395.81;7415789;19;20022;-49
2022/07/22 10:05:31;;;;;;;5.82;0.80;;;;;;;25.10;38.42;101388.94;7415713;19;20018;-47
2022/07/22 10:11:44;;;;;;;2.47;0.85;;;;;;;26.24;37.28;101383.59;7415856;19;20014;-51
2022/07/22 10:18:25;;;;;;;2.50;1.05;;;;;;;26.03;36.99;101381.97;7387606;19;20010;-47
2022/07/22 10:21:09;;;;;;;1.58;0.80;;;;;;;25.91;36.96;101370.47;7383796;19;20025;-47
2022/07/22 10:24:23;;;;;;;4.60;1.23;;;;;;;25.50;37.75;101382.16;7385999;19;20028;-53
2022/07/22 10:27:01;;;;;;;3.58;0.95;;;;;;;24.97;38.22;101382.22;7383477;19;20022;-48
2022/07/22 10:29:32;;;;;;;3.83;1.15;;;;;;;24.57;38.56;101376.31;7386631;19;20051;-47
2022/07/22 10:35:52;;;;;;;4.82;1.05;;;;;;;25.19;38.62;101377.81;7383936;19;20014;-47
2022/07/22 10:38:21;;;;;;;7.35;1.05;;;;;;;25.21;38.26;101375.34;7383103;19;20022;-51
2022/07/22 10:40:58;;;;;;;3.38;0.60;;;;;;;24.70;38.02;101377.34;7385313;19;20676;-47
2022/07/22 10:43:28;;;;;;;3.40;1.23;;;;;;;24.08;38.82;101365.63;7385715;19;20025;-49
2022/07/22 10:45:57;;;;;;;3.15;0.90;;;;;;;23.64;38.80;101375.00;7387266;19;20051;-47
2022/07/22 10:49:10;;;;;;;2.20;1.20;;;;;;;23.38;39.74;101379.28;7383511;19;20047;-52
2022/07/22 11:02:03;;;;;;;3.25;0.88;;;;;;;24.74;38.76;101363.13;7383967;19;20014;-49
2022/07/22 11:04:32;;;;;;;1.25;0.93;;;;;;;24.68;38.02;101365.63;7387511;19;20026;-47
2022/07/22 11:07:02;;;;;;;1.85;0.60;;;;;;;24.60;37.86;101361.31;7385136;19;20026;-49
2022/07/22 11:09:34;;;;;;;6.63;2.08;;;;;;;24.47;37.93;101360.28;7386818;19;20036;-47
2022/07/22 11:12:11;;;;;;;4.03;0.80;;;;;;;24.43;38.11;101359.53;7386644;19;21623;-47
2022/07/22 11:22:16;;;;;;;2.05;0.60;;;;;;;25.01;37.20;101354.66;7398194;19;20003;-47
2022/07/22 11:24:49;;;;;;;2.88;0.90;;;;;;;24.99;37.82;101357.13;7397619;19;20026;-47
2022/07/22 11:27:18;;;;;;;0.55;0.30;;;;;;;24.80;37.88;101350.94;7400184;19;20014;-48
2022/07/22 11:29:52;;;;;;;1.52;0.50;;;;;;;24.53;38.03;101343.63;7399461;19;20015;-46
2022/07/22 11:32:43;;;;;;;2.38;0.63;;;;;;;24.36;37.82;101339.81;7400299;19;20031;-47
2022/07/22 11:39:29;;;;;;;3.25;1.00;;;;;;;24.34;37.91;101339.44;7398556;19;20011;-50
2022/07/22 11:42:17;;;;;;;2.08;1.25;;;;;;;24.37;38.31;101338.59;7399625;19;20014;-46
2022/07/22 11:45:07;;;;;;;3.05;0.70;;;;;;;24.34;38.00;101332.97;7396662;19;20029;-50
2022/07/22 11:47:57;;;;;;;2.20;0.93;;;;;;;24.40;38.36;101334.91;7398972;19;20080;-47
2022/07/22 11:54:52;;;;;;;0.93;0.45;;;;;;;24.06;38.51;101339.78;7399545;19;20010;-46
2022/07/22 11:57:47;;;;;;;4.97;0.70;;;;;;;23.85;38.08;101335.19;7397285;19;20355;-50
2022/07/22 12:00:36;;;;;;;3.28;0.88;;;;;;;23.74;38.54;101333.69;7395332;19;20033;-46
2022/07/22 12:03:05;;;;;;;1.33;0.60;;;;;;;23.72;38.83;101328.47;7395620;19;20043;-46
2022/07/22 12:09:23;;;;;;;3.30;1.50;;;;;;;23.48;39.90;101338.78;7397141;19;20360;-47
2022/07/22 12:16:18;;;;;;;13.25;3.05;;;;;;;23.03;41.14;101334.38;7399528;19;20014;-46
2022/07/22 12:19:08;;;;;;;6.47;1.00;;;;;;;23.00;41.17;101329.53;7396577;19;20354;-46
2022/07/22 12:22:00;;;;;;;5.50;0.70;;;;;;;22.96;41.62;101340.03;7399489;19;20078;-46
2022/07/22 12:25:01;;;;;;;4.20;1.52;;;;;;;22.88;40.52;101316.72;7395379;19;20033;-48
2022/07/22 12:28:01;;;;;;;2.67;0.80;;;;;;;22.86;40.92;101321.97;7401047;19;20078;-46
2022/07/22 12:30:52;;;;;;;1.80;0.90;;;;;;;22.94;41.13;101325.53;7389379;19;20006;-49
2022/07/22 12:33:21;;;;;;;5.70;0.70;;;;;;;22.93;41.74;101319.09;7394576;19;20494;-46
2022/07/22 12:39:44;;;;;;;8.05;2.17;;;;;;;23.04;42.86;101319.00;7387783;19;20362;-46
2022/07/22 12:45:51;;;;;;;2.42;0.93;;;;;;;23.32;42.84;101306.66;7394119;19;20010;-46
2022/07/22 12:55:51;;;;;;;4.25;2.05;;;;;;;22.99;43.46;101311.78;7396881;19;20011;-47
2022/07/22 12:58:19;;;;;;;4.95;0.88;;;;;;;23.22;43.40;101307.56;7397065;19;20372;-47
2022/07/22 13:00:51;;;;;;;3.45;0.75;;;;;;;23.29;43.04;101313.13;7395221;19;20018;-45
2022/07/22 13:03:20;;;;;;;4.10;0.95;;;;;;;23.23;43.17;101306.31;7396732;19;20401;-47
2022/07/22 13:05:53;;;;;;;2.50;0.57;;;;;;;23.38;42.66;101299.34;7398164;19;20015;-46
2022/07/22 13:08:21;;;;;;;3.05;0.70;;;;;;;23.34;43.00;101301.38;7393901;19;20015;-47
2022/07/22 13:10:51;;;;;;;2.67;0.80;;;;;;;23.30;43.28;101292.94;7398584;19;20030;-47
2022/07/22 13:13:21;;;;;;;1.45;0.73;;;;;;;23.22;43.12;101304.75;7395668;19;20037;-46
2022/07/22 13:15:49;;;;;;;2.17;0.65;;;;;;;23.27;43.10;101313.53;7397154;19;20015;-46
2022/07/22 13:18:17;;;;;;;2.10;0.95;;;;;;;23.50;42.61;101296.81;7397142;19;20014;-45
2022/07/22 13:20:46;;;;;;;4.93;1.73;;;;;;;23.81;42.65;101291.19;7397647;19;20019;-47
2022/07/22 13:23:14;;;;;;;5.50;4.40;;;;;;;23.88;42.65;101293.94;7395562;19;20013;-46
2022/07/22 13:32:32;;;;;;;3.15;0.93;;;;;;;23.47;42.90;101291.97;7391343;19;20014;-48
2022/07/22 13:35:15;;;;;;;3.50;0.90;;;;;;;23.52;42.81;101300.00;7397026;19;20015;-47
2022/07/22 13:37:44;;;;;;;1.83;0.52;;;;;;;23.46;42.89;101304.50;7397163;19;20043;-47
2022/07/22 13:40:12;;;;;;;5.85;4.43;;;;;;;23.76;43.16;101297.31;7396577;19;20014;-49
2022/07/22 13:42:40;;;;;;;3.50;0.80;;;;;;;24.08;42.63;101294.88;7394482;19;20499;-46
2022/07/22 13:45:09;;;;;;;4.60;1.00;;;;;;;24.29;42.16;101303.13;7394269;19;20038;-46
2022/07/22 13:48:17;;;;;;;2.60;1.05;;;;;;;24.44;40.72;101295.22;7392212;19;20010;-46
2022/07/22 13:50:46;;;;;;;2.45;1.27;;;;;;;24.54;41.16;101288.63;7399893;19;20017;-46
2022/07/22 13:53:14;;;;;;;4.15;1.73;;;;;;;24.68;40.87;101288.38;7406092;19;20370;-48
2022/07/22 13:55:41;;;;;;;4.20;1.10;;;;;;;24.79;40.80;101292.69;7399509;19;20038;-49
2022/07/22 14:05:32;;;;;;;3.50;1.10;;;;;;;25.55;40.40;101284.47;7398594;19;20075;-46
2022/07/22 14:08:19;;;;;;;2.13;0.77;;;;;;;25.75;39.74;101280.41;7400225;19;20006;-46
2022/07/22 14:18:10;;;;;;;3.65;1.05;;;;;;;25.97;38.99;101275.88;7405661;19;20435;-42
2022/07/22 14:24:30;;;;;;;1.52;0.80;;;;;;;25.53;39.07;101273.56;7401075;19;20027;-40
2022/07/22 14:31:09;;;;;;;5.03;1.17;;;;;;;24.90;39.91;101269.03;7405134;19;20038;-49
2022/07/22 14:33:58;;;;;;;4.60;1.00;;;;;;;25.00;39.79;101268.03;7403066;19;21127;-46
2022/07/22 14:40:48;;;;;;;3.63;0.60;;;;;;;24.98;40.04;101259.19;7404759;19;20011;-45
2022/07/22 14:53:18;;;;;;;2.33;0.70;;;;;;;25.31;39.31;101255.34;7398284;19;20014;-46
2022/07/22 14:55:46;;;;;;;3.30;1.05;;;;;;;25.27;39.29;101246.91;7403087;19;20006;-46
2022/07/22 15:05:49;;;;;;;0.80;0.57;;;;;;;25.64;38.37;101240.13;7395156;19;20007;-49
2022/07/22 15:12:57;;;;;;;3.33;0.87;;;;;;;25.91;39.24;101239.97;7402654;19;20003;-49
2022/07/22 15:15:25;;;;;;;1.85;0.50;;;;;;;26.02;39.55;101243.38;7399977;19;20021;-47
2022/07/22 15:17:52;;;;;;;2.30;0.50;;;;;;;26.17;39.30;101241.03;7398161;19;20002;-47
2022/07/22 15:20:42;;;;;;;3.22;0.75;;;;;;;26.09;38.96;101234.69;7397011;19;20048;-47
2022/07/22 15:23:30;;;;;;;2.53;0.70;;;;;;;26.20;38.99;101240.16;7400391;19;20003;-47
2022/07/22 15:26:18;;;;;;;1.58;0.52;;;;;;;26.20;39.46;101237.31;7403256;19;20033;-48
2022/07/22 15:29:05;;;;;;;3.15;0.90;;;;;;;26.25;39.80;101240.44;7398704;19;20352;-46
2022/07/22 15:31:34;;;;;;;0.70;0.70;;;;;;;26.34;39.63;101234.97;7399585;19;20349;-47
2022/07/22 15:34:01;;;;;;;2.55;0.52;;;;;;;26.19;39.48;101235.69;7398213;19;20341;-46
2022/07/22 15:36:29;;;;;;;6.22;1.65;;;;;;;25.89;39.57;101231.88;7402608;19;20014;-48
2022/07/22 15:38:56;;;;;;;1.88;0.70;;;;;;;25.95;39.97;101232.16;7400520;19;20344;-46
2022/07/22 15:44:52;;;;;;;1.75;0.60;;;;;;;26.10;39.78;101238.34;7398902;19;20014;-47
2022/07/22 15:47:20;;;;;;;2.53;0.80;;;;;;;26.24;39.74;101230.31;7400452;19;19999;-47
2022/07/22 15:56:29;;;;;;;6.37;0.70;;;;;;;26.57;39.61;101226.28;7397041;19;20479;-47
2022/07/22 16:06:23;;;;;;;3.85;1.05;;;;;;;26.04;39.43;101226.69;7397246;19;20010;-49
2022/07/22 16:09:13;;;;;;;2.33;0.65;;;;;;;25.66;39.69;101231.97;7398018;19;20035;-46
2022/07/22 16:12:02;;;;;;;1.77;0.80;;;;;;;25.18;40.35;101228.84;7396065;19;20010;-48
2022/07/22 16:14:50;;;;;;;3.53;1.00;;;;;;;24.89;40.59;101224.97;7398264;19;20486;-47
2022/07/22 16:17:38;;;;;;;1.73;0.70;;;;;;;24.64;41.00;101231.81;7396913;19;20094;-46
2022/07/22 16:23:58;;;;;;;0.90;0.85;;;;;;;24.27;40.93;101223.50;7397248;19;20010;-48
2022/07/22 16:26:26;;;;;;;2.03;0.40;;;;;;;24.03;41.70;101221.81;7397638;19;20014;-48
2022/07/22 16:28:54;;;;;;;1.67;0.77;;;;;;;24.00;41.47;101222.66;7397348;19;20015;-52
2022/07/22 16:35:45;;;;;;;2.42;0.70;;;;;;;23.31;43.58;101228.75;7397694;19;20011;-48
2022/07/22 16:38:13;;;;;;;4.15;1.27;;;;;;;23.44;42.70;101232.66;7400778;19;20317;-51
2022/07/22 16:40:40;;;;;;;5.07;1.20;;;;;;;23.43;42.90;101229.03;7392970;19;20014;-47
2022/07/22 16:43:08;;;;;;;6.65;2.67;;;;;;;23.50;42.70;101234.63;7395082;19;20021;-48
2022/07/22 16:49:07;;;;;;;1.33;0.57;;;;;;;24.37;41.58;101222.53;7393124;19;20019;-51
2022/07/22 16:51:34;;;;;;;0.93;0.50;;;;;;;24.74;40.56;101228.00;7394951;19;20027;-47
2022/07/22 16:57:50;;;;;;;1.17;0.40;;;;;;;25.04;37.88;101217.78;7394364;19;20019;-49
2022/07/22 17:00:18;;;;;;;1.73;0.45;;;;;;;25.19;38.77;101219.13;7399789;19;20003;-49
2022/07/22 17:02:45;;;;;;;2.75;0.50;;;;;;;25.36;38.39;101218.00;7394555;19;20047;-48
2022/07/22 17:05:21;;;;;;;1.67;0.75;;;;;;;25.35;38.00;101222.06;7391106;19;20033;-52
2022/07/22 17:14:38;;;;;;;6.97;1.42;;;;;;;24.56;39.03;101212.53;7392790;19;20070;-53
2022/07/22 17:17:06;;;;;;;2.00;1.00;;;;;;;24.25;39.39;101225.16;7395163;19;20007;-50
2022/07/22 17:23:00;;;;;;;4.72;0.90;;;;;;;24.66;39.05;101208.72;7392911;19;20538;-51
2022/07/22 17:25:28;;;;;;;2.90;0.80;;;;;;;24.83;38.48;101210.50;7401094;19;20015;-52
2022/07/22 17:31:36;;;;;;;4.03;1.30;;;;;;;24.36;39.16;101197.50;7401174;19;20014;-55
2022/07/22 17:37:49;;;;;;;2.67;0.65;;;;;;;24.39;38.73;101188.94;7403359;19;20006;-48
2022/07/22 17:40:17;;;;;;;3.60;1.30;;;;;;;24.33;38.93;101185.00;7405530;19;20002;-48
2022/07/22 17:42:44;;;;;;;2.90;0.63;;;;;;;24.26;39.00;101185.13;7403125;19;20019;-48
2022/07/22 17:45:12;;;;;;;6.80;3.10;;;;;;;24.27;39.10;101185.91;7403260;19;20051;-47
2022/07/22 17:47:40;;;;;;;12.05;7.95;;;;;;;24.41;39.06;101183.66;7403442;19;20007;-45
2022/07/22 17:50:07;;;;;;;3.80;1.40;;;;;;;24.43;38.66;101177.56;7400453;19;20011;-46
2022/07/22 17:52:37;;;;;;;53.40;39.88;;;;;;;24.38;38.46;101181.69;7401471;19;20010;-51
2022/07/22 18:02:07;;;;;;;6.47;1.67;;;;;;;23.73;39.21;101173.75;7391934;19;20014;-48
2022/07/22 18:08:36;;;;;;;61.67;41.97;;;;;;;23.11;40.56;101177.72;7396549;19;20018;-48
2022/07/22 18:11:06;;;;;;;2.72;1.58;;;;;;;22.78;40.68;101170.00;7401546;19;20013;-48
2022/07/22 18:13:41;;;;;;;6.15;5.35;;;;;;;22.52;41.29;101174.25;7397584;19;20023;-53
2022/07/22 18:16:12;;;;;;;8.02;1.23;;;;;;;22.50;41.25;101153.31;7402849;19;20025;-47
2022/07/22 18:19:00;;;;;;;3.03;1.20;;;;;;;22.59;41.39;101170.53;7401799;19;20029;-47
2022/07/22 18:22:25;;;;;;;1.75;0.73;;;;;;;22.37;41.83;101167.91;7400088;19;20375;-50
2022/07/22 18:24:53;;;;;;;3.15;1.05;;;;;;;22.32;41.39;101171.16;7398459;19;20471;-54
2022/07/22 18:41:52;;;;;;;9.95;1.58;;;;;;;21.82;43.63;101147.31;7396632;19;20006;-49
2022/07/22 18:51:28;;;;;;;8.60;1.20;;;;;;;21.40;45.30;101137.09;7396790;19;20019;-52
2022/07/22 18:53:56;;;;;;;1.60;0.80;;;;;;;21.41;45.15;101140.72;7399930;19;20034;-49
2022/07/22 18:56:44;;;;;;;2.80;1.00;;;;;;;21.41;45.77;101151.97;7404652;19;20019;-51
2022/07/22 18:59:32;;;;;;;6.53;1.95;;;;;;;21.32;46.14;101143.16;7404006;19;20010;-54
2022/07/22 19:02:19;;;;;;;5.15;1.00;;;;;;;21.26;47.08;101136.34;7398115;19;20397;-50
2022/07/22 19:08:53;;;;;;;4.50;2.30;;;;;;;20.98;48.43;101129.56;7402115;19;20033;-53
2022/07/22 19:12:03;;;;;;;3.22;1.35;;;;;;;20.88;49.25;101132.41;7398183;19;20006;-48
2022/07/22 19:21:21;;;;;;;3.58;1.40;;;;;;;20.81;49.12;101141.66;7396169;19;20018;-59
2022/07/22 19:23:48;;;;;;;5.60;1.50;;;;;;;20.81;49.79;101138.84;7393253;19;20011;-60
2022/07/22 19:30:35;;;;;;;1.88;1.17;;;;;;;20.79;50.45;101130.03;7393281;19;20015;-58
2022/07/22 19:33:02;;;;;;;2.58;1.17;;;;;;;20.81;49.39;101140.88;7392836;19;20015;-60
2022/07/22 19:42:44;;;;;;;4.28;1.05;;;;;;;20.44;50.17;101142.13;7394860;19;20003;-59
2022/07/22 19:45:52;;;;;;;3.03;1.38;;;;;;;20.34;51.72;101142.94;7396654;19;20126;-59
2022/07/22 19:48:19;;;;;;;3.85;1.27;;;;;;;20.38;50.45;101142.94;7396241;19;20014;-59
2022/07/22 19:54:12;;;;;;;5.47;2.38;;;;;;;20.22;51.39;101145.31;7389207;19;20472;-62
2022/07/22 20:15:01;;;;;;;6.78;2.20;;;;;;;19.57;53.91;101149.19;7396097;19;20475;-60
2022/07/22 20:21:58;;;;;;;2.90;2.35;;;;;;;19.43;55.35;101143.56;7395340;19;20014;-61
2022/07/22 20:24:31;;;;;;;3.28;2.15;;;;;;;19.42;56.34;101141.94;7390413;19;20017;-61
2022/07/22 20:26:59;;;;;;;4.28;1.30;;;;;;;19.40;55.55;101138.72;7390708;19;20070;-61
2022/07/22 20:33:00;;;;;;;4.22;1.67;;;;;;;19.24;56.18;101141.03;7399509;19;20372;-50
2022/07/22 20:35:48;;;;;;;2.28;1.40;;;;;;;19.22;56.34;101149.84;7392733;19;20379;-52